KCNY/CNY METAR and TAF weather

Enter ICAO airport designator
Station Type Date Time Source
KCNY METAR 2022/08/13 12:53 UTC NOAA

KCNY 131253Z AUTO 07004KT 10SM SCT120 20/11 A3017 RMK AO2 SLP155 T02000111


Station Type Date Time Source
KCNY Decoded METAR 2022/08/13 12:53 UTC NOAA

MOAB CANYONLANDS FIELD, UT, United States (KCNY) 38-46N 109-45W 1390M
Aug 13, 2022 - 08:53 AM EDT / 2022.08.13 1253 UTC
Wind: from the ENE (070 degrees) at 5 MPH (4 KT):0
Visibility: 10 mile(s):0
Sky conditions: partly cloudy
Temperature: 68.0 F (20.0 C)
Dew Point: 52.0 F (11.1 C)
Relative Humidity: 56%
Pressure (altimeter): 30.17 in. Hg (1021 hPa)
ob: KCNY 131253Z AUTO 07004KT 10SM SCT120 20/11 A3017 RMK AO2 SLP155 T02000111
cycle: 13

Station Type Date Time Source
KCNY TAF 2022/08/13 12:24 UTC NOAA

TAF KCNY 131122Z 1312/1412 VRB03KT P6SM FEW120
FM132100 23009KT P6SM SCT120
FM140200 29009KT P6SM SCT120
FM140400 24007KT P6SM SCT120

Example: see airport list